Time;durP1;ratioP1;P1;durP2;ratioP2;P2;SDS_P1;SDS_P2;PMS_P1;PMS_P2;Temp;Humidity;BMP_temperature;BMP_pressure;BME280_temperature;BME280_humidity;BME280_pressure;Samples;Min_cycle;Max_cycle;Signal;HPM_P1;HPM_P2
2022/10/13 00:01:20;;;;;;;17.77;16.20;;;;;;;;;;1738646;81;617581;-76
2022/10/13 00:03:49;;;;;;;17.57;16.17;;;;;;;;;;1724445;81;615982;-77
2022/10/13 00:06:19;;;;;;;16.80;15.60;;;;;;;;;;1738723;81;617736;-77
2022/10/13 00:08:49;;;;;;;17.73;16.30;;;;;;;;;;1724832;81;615886;-77
2022/10/13 00:11:18;;;;;;;17.70;16.30;;;;;;;;;;1717552;81;616882;-77
2022/10/13 00:13:48;;;;;;;17.00;15.90;;;;;;;;;;1701699;81;615946;-76
2022/10/13 00:16:18;;;;;;;16.47;15.40;;;;;;;;;;1716501;81;617990;-77
2022/10/13 00:18:47;;;;;;;16.10;14.93;;;;;;;;;;1724507;81;616191;-76
2022/10/13 00:21:17;;;;;;;15.70;14.60;;;;;;;;;;1738788;81;617704;-76
2022/10/13 00:23:47;;;;;;;15.80;14.60;;;;;;;;;;1746429;81;615961;-76
2022/10/13 00:26:16;;;;;;;16.83;15.57;;;;;;;;;;1738872;81;617811;-76
2022/10/13 00:28:45;;;;;;;18.77;17.27;;;;;;;;;;1746403;81;615919;-77
2022/10/13 00:31:18;;;;;;;17.10;15.80;;;;;;;;;;1692805;81;616956;-76
2022/10/13 00:33:48;;;;;;;17.30;16.10;;;;;;;;;;1724522;81;616182;-76
2022/10/13 00:36:17;;;;;;;18.50;17.00;;;;;;;;;;1738795;81;617883;-76
2022/10/13 00:38:46;;;;;;;16.87;15.77;;;;;;;;;;1746492;81;615971;-77
2022/10/13 00:41:15;;;;;;;18.03;16.57;;;;;;;;;;1738652;81;617633;-77
2022/10/13 00:43:57;;;;;;;17.57;16.27;;;;;;;;;;1746412;81;615852;-76
2022/10/13 00:46:27;;;;;;;17.97;16.47;;;;;;;;;;1723919;81;617854;-77
2022/10/13 00:48:56;;;;;;;16.00;14.90;;;;;;;;;;1740811;81;617688;-77
2022/10/13 00:51:28;;;;;;;16.60;15.30;;;;;;;;;;1718768;81;618037;-76
2022/10/13 00:53:58;;;;;;;15.63;14.47;;;;;;;;;;1662694;84;617788;-76
2022/10/13 00:56:27;;;;;;;15.90;14.70;;;;;;;;;;1692789;84;617837;-76
2022/10/13 00:58:56;;;;;;;16.37;15.10;;;;;;;;;;1663059;84;617794;-77
2022/10/13 01:01:25;;;;;;;16.93;15.23;;;;;;;;;;1679284;84;617993;-76
2022/10/13 01:03:54;;;;;;;15.80;14.53;;;;;;;;;;1669875;84;616049;-77
2022/10/13 01:06:24;;;;;;;15.73;14.50;;;;;;;;;;1670255;84;617885;-76
2022/10/13 01:08:53;;;;;;;15.80;14.60;;;;;;;;;;1692959;84;615859;-76
2022/10/13 01:11:30;;;;;;;16.70;15.30;;;;;;;;;;1692659;84;617719;-76
2022/10/13 01:14:00;;;;;;;16.53;15.03;;;;;;;;;;1685424;84;617031;-77
2022/10/13 01:16:31;;;;;;;15.67;14.47;;;;;;;;;;1711358;79;617862;-77
2022/10/13 01:19:02;;;;;;;15.70;14.60;;;;;;;;;;1704110;82;616941;-77
2022/10/13 01:21:32;;;;;;;15.80;14.67;;;;;;;;;;1670183;84;617992;-77
2022/10/13 01:24:06;;;;;;;16.20;14.83;;;;;;;;;;1685699;84;617714;-77
2022/10/13 01:26:44;;;;;;;14.47;13.50;;;;;;;;;;1669929;84;617861;-77
2022/10/13 01:29:15;;;;;;;15.80;14.13;;;;;;;;;;1685609;84;617803;-77
2022/10/13 01:31:47;;;;;;;15.33;13.90;;;;;;;;;;1711927;82;615883;-77
2022/10/13 01:34:17;;;;;;;15.20;14.00;;;;;;;;;;1726231;82;617785;-76
2022/10/13 01:36:49;;;;;;;15.43;14.33;;;;;;;;;;1670230;84;615730;-77
2022/10/13 01:39:19;;;;;;;15.03;13.93;;;;;;;;;;1685493;84;617817;-77
2022/10/13 01:41:50;;;;;;;14.40;13.40;;;;;;;;;;1670147;84;615936;-76
2022/10/13 01:44:20;;;;;;;14.80;13.67;;;;;;;;;;1685445;82;617927;-77
2022/10/13 01:46:50;;;;;;;13.70;12.50;;;;;;;;;;1692735;84;616068;-76
2022/10/13 01:49:20;;;;;;;13.77;12.73;;;;;;;;;;1685539;84;617816;-77
2022/10/13 01:51:49;;;;;;;16.07;13.43;;;;;;;;;;1692716;84;616052;-76
2022/10/13 01:54:18;;;;;;;14.47;13.37;;;;;;;;;;1662323;83;617909;-76
2022/10/13 01:56:52;;;;;;;14.33;13.03;;;;;;;;;;1670015;84;616029;-77
2022/10/13 01:59:22;;;;;;;13.97;12.70;;;;;;;;;;1670094;84;617858;-76
2022/10/13 02:01:54;;;;;;;13.93;12.73;;;;;;;;;;1692840;84;615773;-77
2022/10/13 02:04:26;;;;;;;14.87;13.60;;;;;;;;;;1692724;84;617907;-76
2022/10/13 02:06:57;;;;;;;14.00;12.70;;;;;;;;;;1668663;84;617787;-77
2022/10/13 02:09:29;;;;;;;14.10;13.00;;;;;;;;;;1719588;82;617825;-77
2022/10/13 02:12:00;;;;;;;15.03;13.73;;;;;;;;;;1685460;83;617014;-77
2022/10/13 02:14:30;;;;;;;14.73;13.50;;;;;;;;;;1670914;84;617811;-77
2022/10/13 02:17:01;;;;;;;15.87;14.20;;;;;;;;;;1685295;83;617926;-76
2022/10/13 02:19:30;;;;;;;16.07;14.37;;;;;;;;;;1692857;83;616915;-77
2022/10/13 02:21:59;;;;;;;16.10;14.43;;;;;;;;;;1662352;84;617751;-77
2022/10/13 02:24:28;;;;;;;15.80;14.43;;;;;;;;;;1692864;84;617275;-77
2022/10/13 02:26:58;;;;;;;15.43;14.17;;;;;;;;;;1704051;82;617904;-76
2022/10/13 02:29:26;;;;;;;15.90;14.37;;;;;;;;;;1733717;82;617841;-77
2022/10/13 02:31:55;;;;;;;14.23;13.37;;;;;;;;;;1670023;84;616085;-77
2022/10/13 02:34:23;;;;;;;15.40;14.27;;;;;;;;;;1692507;84;617766;-77
2022/10/13 02:36:52;;;;;;;15.03;14.03;;;;;;;;;;1670045;84;616034;-76
2022/10/13 02:39:21;;;;;;;15.77;14.17;;;;;;;;;;1692748;84;617263;-77
2022/10/13 02:41:50;;;;;;;15.83;14.33;;;;;;;;;;1692558;84;616028;-76
2022/10/13 02:44:20;;;;;;;15.60;14.13;;;;;;;;;;1692438;84;617806;-77
2022/10/13 02:46:49;;;;;;;16.13;14.10;;;;;;;;;;1709905;82;616090;-77
2022/10/13 02:49:18;;;;;;;16.43;14.50;;;;;;;;;;1704157;82;617871;-77
2022/10/13 02:51:47;;;;;;;15.43;14.03;;;;;;;;;;1733804;82;616038;-77
2022/10/13 02:54:16;;;;;;;14.50;13.40;;;;;;;;;;1704018;82;617889;-77
2022/10/13 02:56:45;;;;;;;14.90;13.77;;;;;;;;;;1690289;82;616020;-75
2022/10/13 02:59:14;;;;;;;14.60;13.37;;;;;;;;;;1704686;82;617711;-77
2022/10/13 03:01:43;;;;;;;14.57;13.13;;;;;;;;;;1733704;82;616116;-77
2022/10/13 03:04:12;;;;;;;13.97;12.90;;;;;;;;;;1663358;84;617798;-77
2022/10/13 03:06:40;;;;;;;14.53;13.33;;;;;;;;;;1670559;84;617101;-77
2022/10/13 03:09:11;;;;;;;14.83;13.53;;;;;;;;;;1685434;84;617820;-76
2022/10/13 03:11:39;;;;;;;13.93;12.83;;;;;;;;;;1711979;82;617776;-76
2022/10/13 03:14:09;;;;;;;15.03;13.23;;;;;;;;;;1704455;82;617777;-76
2022/10/13 03:16:37;;;;;;;14.87;13.43;;;;;;;;;;1709919;82;617964;-76
2022/10/13 03:19:06;;;;;;;15.13;13.63;;;;;;;;;;1726376;80;618111;-77
2022/10/13 03:21:34;;;;;;;15.23;13.87;;;;;;;;;;1712126;82;617702;-76
2022/10/13 03:24:04;;;;;;;15.10;13.70;;;;;;;;;;1703819;82;617868;-77
2022/10/13 03:26:34;;;;;;;14.83;13.47;;;;;;;;;;1733746;82;617801;-76
2022/10/13 03:29:03;;;;;;;15.70;14.23;;;;;;;;;;1725730;82;617964;-77
2022/10/13 03:31:31;;;;;;;14.57;13.30;;;;;;;;;;1709408;82;617276;-77
2022/10/13 03:34:00;;;;;;;15.33;13.73;;;;;;;;;;1702984;82;617826;-76
2022/10/13 03:36:29;;;;;;;15.37;14.00;;;;;;;;;;1731185;82;617829;-76
2022/10/13 03:38:59;;;;;;;15.57;14.10;;;;;;;;;;1724363;82;617910;-76
2022/10/13 03:41:34;;;;;;;14.73;13.37;;;;;;;;;;1731244;82;617826;-76
2022/10/13 03:44:03;;;;;;;15.23;13.80;;;;;;;;;;1723925;81;617871;-76
2022/10/13 03:46:31;;;;;;;15.23;13.93;;;;;;;;;;1709260;82;617221;-76
2022/10/13 03:49:00;;;;;;;14.67;13.47;;;;;;;;;;1724257;82;618016;-75
2022/10/13 03:51:30;;;;;;;15.00;13.80;;;;;;;;;;1731425;82;617998;-75
2022/10/13 03:53:59;;;;;;;17.03;15.40;;;;;;;;;;1723993;82;618108;-75
2022/10/13 03:56:28;;;;;;;17.07;15.47;;;;;;;;;;1731399;82;617822;-75
2022/10/13 03:58:58;;;;;;;16.77;14.93;;;;;;;;;;1723966;82;618026;-75
2022/10/13 04:01:28;;;;;;;15.93;14.63;;;;;;;;;;1702280;82;618003;-74
2022/10/13 04:03:58;;;;;;;15.40;14.20;;;;;;;;;;1701749;82;617101;-75
2022/10/13 04:06:26;;;;;;;14.97;13.90;;;;;;;;;;1731693;82;618013;-75
2022/10/13 04:08:56;;;;;;;14.33;13.27;;;;;;;;;;1685707;82;618192;-76
2022/10/13 04:11:25;;;;;;;14.97;13.83;;;;;;;;;;1694800;82;617866;-75
2022/10/13 04:13:55;;;;;;;15.47;14.20;;;;;;;;;;1690745;84;615970;-75
2022/10/13 04:16:25;;;;;;;15.20;13.87;;;;;;;;;;1690749;84;617110;-74
2022/10/13 04:18:56;;;;;;;15.97;14.50;;;;;;;;;;1690777;84;616216;-75
2022/10/13 04:21:25;;;;;;;15.33;13.93;;;;;;;;;;1670455;84;618390;-74
2022/10/13 04:23:56;;;;;;;15.27;14.00;;;;;;;;;;1670710;84;615918;-75
2022/10/13 04:26:26;;;;;;;15.57;14.40;;;;;;;;;;1692693;84;617896;-74
2022/10/13 04:28:55;;;;;;;15.07;13.90;;;;;;;;;;1692967;84;615846;-75
2022/10/13 04:31:24;;;;;;;15.33;14.13;;;;;;;;;;1669901;84;617926;-75
2022/10/13 04:33:54;;;;;;;15.17;13.87;;;;;;;;;;1725185;81;616006;-75
2022/10/13 04:36:23;;;;;;;15.67;14.37;;;;;;;;;;1746522;81;617843;-75
2022/10/13 04:38:52;;;;;;;15.67;14.33;;;;;;;;;;1725180;81;616207;-75
2022/10/13 04:41:21;;;;;;;15.30;14.03;;;;;;;;;;1746626;81;617670;-75
2022/10/13 04:43:52;;;;;;;16.40;14.77;;;;;;;;;;1745667;81;615831;-76
2022/10/13 04:46:24;;;;;;;15.73;14.43;;;;;;;;;;1744583;81;617895;-76
2022/10/13 04:48:54;;;;;;;15.27;14.10;;;;;;;;;;1744834;81;615953;-76
2022/10/13 04:51:23;;;;;;;16.20;14.80;;;;;;;;;;1746609;81;617954;-76
2022/10/13 04:53:55;;;;;;;16.37;14.73;;;;;;;;;;1746720;81;615993;-76
2022/10/13 04:56:23;;;;;;;15.90;14.50;;;;;;;;;;1724466;81;617991;-76
2022/10/13 04:58:53;;;;;;;16.10;14.80;;;;;;;;;;1670436;84;616207;-76
2022/10/13 05:01:24;;;;;;;15.97;14.73;;;;;;;;;;1646800;84;617999;-76
2022/10/13 05:03:53;;;;;;;16.87;15.10;;;;;;;;;;1691124;84;616038;-76
2022/10/13 05:06:24;;;;;;;15.73;14.30;;;;;;;;;;1668142;84;617257;-76
2022/10/13 05:08:52;;;;;;;17.83;16.13;;;;;;;;;;1670611;84;616058;-76
2022/10/13 05:11:21;;;;;;;16.70;15.30;;;;;;;;;;1682524;82;617999;-77
2022/10/13 05:13:50;;;;;;;17.13;15.43;;;;;;;;;;1732547;82;616157;-76
2022/10/13 05:16:21;;;;;;;17.37;15.83;;;;;;;;;;1724312;82;618095;-76
2022/10/13 05:18:50;;;;;;;17.23;15.63;;;;;;;;;;1731874;82;616187;-76
2022/10/13 05:21:20;;;;;;;17.07;15.47;;;;;;;;;;1724559;80;618030;-76
2022/10/13 05:23:52;;;;;;;18.47;16.97;;;;;;;;;;1710541;82;615213;-75
2022/10/13 05:26:19;;;;;;;18.50;16.80;;;;;;;;;;1683432;84;617861;-76
2022/10/13 05:28:48;;;;;;;18.13;16.67;;;;;;;;;;1667364;84;616161;-76
2022/10/13 05:31:18;;;;;;;18.10;16.40;;;;;;;;;;1702722;82;617818;-77
2022/10/13 05:33:48;;;;;;;18.20;16.40;;;;;;;;;;1731779;82;616015;-76
2022/10/13 05:36:18;;;;;;;18.80;17.07;;;;;;;;;;1662471;84;617694;-77
2022/10/13 05:38:49;;;;;;;18.27;16.67;;;;;;;;;;1693047;84;615921;-76
2022/10/13 05:41:18;;;;;;;18.80;17.10;;;;;;;;;;1726361;81;617807;-77
2022/10/13 05:43:48;;;;;;;19.03;17.43;;;;;;;;;;1711636;82;616167;-77
2022/10/13 05:46:16;;;;;;;19.17;17.50;;;;;;;;;;1725052;82;617983;-76
2022/10/13 05:48:46;;;;;;;19.50;17.90;;;;;;;;;;1687906;82;616094;-76
2022/10/13 05:51:20;;;;;;;19.37;17.70;;;;;;;;;;1702013;82;617178;-76
2022/10/13 05:53:50;;;;;;;18.83;17.33;;;;;;;;;;1667512;84;615974;-76
2022/10/13 05:56:20;;;;;;;20.67;18.67;;;;;;;;;;1683317;83;617171;-76
2022/10/13 05:58:51;;;;;;;20.83;18.63;;;;;;;;;;1648256;84;616287;-76
2022/10/13 06:01:20;;;;;;;20.97;18.87;;;;;;;;;;1685409;84;618092;-76
2022/10/13 06:03:52;;;;;;;20.07;18.47;;;;;;;;;;1693128;84;615993;-76
2022/10/13 06:06:24;;;;;;;20.00;18.33;;;;;;;;;;1705199;82;618131;-76
2022/10/13 06:08:52;;;;;;;19.77;18.07;;;;;;;;;;1733258;82;615873;-76
2022/10/13 06:11:22;;;;;;;20.47;18.53;;;;;;;;;;1731520;82;617885;-76
2022/10/13 06:13:51;;;;;;;20.37;18.70;;;;;;;;;;1711826;82;616078;-76
2022/10/13 06:16:20;;;;;;;20.87;18.97;;;;;;;;;;1704555;82;632310;-75
2022/10/13 06:18:50;;;;;;;25.13;19.70;;;;;;;;;;1733827;82;616040;-75
2022/10/13 06:21:18;;;;;;;22.73;20.43;;;;;;;;;;1726217;79;617791;-75
2022/10/13 06:23:47;;;;;;;22.47;20.27;;;;;;;;;;1733895;82;616155;-75
2022/10/13 06:26:16;;;;;;;24.27;19.93;;;;;;;;;;1682486;82;617718;-76
2022/10/13 06:28:45;;;;;;;30.83;20.47;;;;;;;;;;1712611;82;616113;-75
2022/10/13 06:31:14;;;;;;;25.37;19.93;;;;;;;;;;1682444;82;617831;-75
2022/10/13 06:33:48;;;;;;;29.37;19.83;;;;;;;;;;1733842;82;615954;-75
2022/10/13 06:36:17;;;;;;;36.80;20.63;;;;;;;;;;1726186;82;617818;-75
2022/10/13 06:38:46;;;;;;;60.97;20.07;;;;;;;;;;1733767;82;616048;-75
2022/10/13 06:41:15;;;;;;;58.83;18.63;;;;;;;;;;1662521;84;617864;-75
2022/10/13 06:43:43;;;;;;;35.23;16.70;;;;;;;;;;1693106;83;616082;-75
2022/10/13 06:46:12;;;;;;;67.40;18.30;;;;;;;;;;1685622;84;617823;-75
2022/10/13 06:48:41;;;;;;;84.00;18.23;;;;;;;;;;1648965;84;615948;-75
2022/10/13 06:51:11;;;;;;;49.07;17.17;;;;;;;;;;1683554;84;617970;-75
2022/10/13 06:53:40;;;;;;;93.23;18.50;;;;;;;;;;1668265;84;618009;-75
2022/10/13 06:56:09;;;;;;;54.27;16.57;;;;;;;;;;1683705;83;617847;-76
2022/10/13 06:58:37;;;;;;;57.33;16.70;;;;;;;;;;1668236;84;618095;-73
2022/10/13 07:01:06;;;;;;;40.27;15.20;;;;;;;;;;1683391;84;617998;-75
2022/10/13 07:03:35;;;;;;;76.13;17.67;;;;;;;;;;1710055;82;617114;-75
2022/10/13 07:06:06;;;;;;;62.17;16.33;;;;;;;;;;1660900;84;617996;-75
2022/10/13 07:08:35;;;;;;;49.87;16.47;;;;;;;;;;1691228;84;617806;-75
2022/10/13 07:11:07;;;;;;;92.67;18.37;;;;;;;;;;1685803;84;617841;-75
2022/10/13 07:13:36;;;;;;;103.50;19.17;;;;;;;;;;1693056;84;617997;-75
2022/10/13 07:16:06;;;;;;;66.67;18.87;;;;;;;;;;1685616;84;619976;-75
2022/10/13 07:18:35;;;;;;;74.27;18.27;;;;;;;;;;1693163;83;617935;-75
2022/10/13 07:21:03;;;;;;;96.90;20.00;;;;;;;;;;1662467;84;617694;-75
2022/10/13 07:23:33;;;;;;;89.37;19.47;;;;;;;;;;1690890;81;617808;-75
2022/10/13 07:26:12;;;;;;;91.17;20.63;;;;;;;;;;1740117;80;618015;-75
2022/10/13 07:28:41;;;;;;;67.37;17.70;;;;;;;;;;1727131;81;617799;-75
2022/10/13 07:31:10;;;;;;;74.57;19.03;;;;;;;;;;1716897;81;617818;-74
2022/10/13 07:33:40;;;;;;;96.63;19.97;;;;;;;;;;1724904;81;617973;-75
2022/10/13 07:36:10;;;;;;;88.43;19.33;;;;;;;;;;1737739;80;618135;-75
2022/10/13 07:38:39;;;;;;;77.13;19.17;;;;;;;;;;1747598;80;617898;-76
2022/10/13 07:41:09;;;;;;;63.83;18.23;;;;;;;;;;1738909;81;617809;-74
2022/10/13 07:43:37;;;;;;;73.73;18.47;;;;;;;;;;1746666;81;617917;-75
2022/10/13 07:46:06;;;;;;;55.10;15.20;;;;;;;;;;1717059;81;617791;-76
2022/10/13 07:48:36;;;;;;;46.97;15.90;;;;;;;;;;1724835;81;617965;-75
2022/10/13 07:51:06;;;;;;;54.90;14.93;;;;;;;;;;1739100;81;617793;-75
2022/10/13 07:53:34;;;;;;;32.37;14.47;;;;;;;;;;1724689;81;617848;-76
2022/10/13 07:56:03;;;;;;;49.17;16.57;;;;;;;;;;1738965;80;617865;-75
2022/10/13 07:58:32;;;;;;;55.97;15.93;;;;;;;;;;1746508;81;617900;-75
2022/10/13 08:01:02;;;;;;;44.43;15.43;;;;;;;;;;1736734;81;617863;-75
2022/10/13 08:03:31;;;;;;;45.10;16.23;;;;;;;;;;1721982;81;617897;-75
2022/10/13 08:06:03;;;;;;;53.20;17.30;;;;;;;;;;1714316;81;617277;-76
2022/10/13 08:08:32;;;;;;;33.60;14.63;;;;;;;;;;1744446;81;617906;-76
2022/10/13 08:11:02;;;;;;;33.43;15.70;;;;;;;;;;1714323;81;617036;-76
2022/10/13 08:13:32;;;;;;;15.77;14.30;;;;;;;;;;1722575;81;617818;-75
2022/10/13 08:16:02;;;;;;;25.23;15.03;;;;;;;;;;1736705;81;617977;-76
2022/10/13 08:18:32;;;;;;;20.90;15.23;;;;;;;;;;1744643;81;617834;-76
2022/10/13 08:21:02;;;;;;;25.10;14.67;;;;;;;;;;1737048;81;617944;-75
2022/10/13 08:23:32;;;;;;;24.83;15.33;;;;;;;;;;1690989;81;618052;-76
2022/10/13 08:26:01;;;;;;;17.90;15.47;;;;;;;;;;1683454;84;617305;-76
2022/10/13 08:28:30;;;;;;;17.43;15.60;;;;;;;;;;1690969;84;617090;-76
2022/10/13 08:30:59;;;;;;;18.33;14.37;;;;;;;;;;1659910;83;618195;-76
2022/10/13 08:33:28;;;;;;;45.13;17.53;;;;;;;;;;1626440;84;618131;-75
2022/10/13 08:35:56;;;;;;;28.70;16.53;;;;;;;;;;1660035;84;617821;-74
2022/10/13 08:38:25;;;;;;;17.03;15.67;;;;;;;;;;1647530;84;617913;-74
2022/10/13 08:40:55;;;;;;;16.40;15.10;;;;;;;;;;1744203;81;616164;-73
2022/10/13 08:43:24;;;;;;;22.80;16.07;;;;;;;;;;1744104;81;617968;-73
2022/10/13 08:45:55;;;;;;;17.37;15.20;;;;;;;;;;1744337;81;616223;-74
2022/10/13 08:48:26;;;;;;;16.23;14.87;;;;;;;;;;1744381;81;617987;-74
2022/10/13 08:50:55;;;;;;;31.90;15.80;;;;;;;;;;1744223;81;615906;-73
2022/10/13 08:53:28;;;;;;;15.47;14.20;;;;;;;;;;1746547;81;617788;-74
2022/10/13 08:55:58;;;;;;;16.07;14.50;;;;;;;;;;1738908;81;617864;-75
2022/10/13 08:58:28;;;;;;;14.27;13.37;;;;;;;;;;1746293;81;617998;-74
2022/10/13 09:01:00;;;;;;;15.23;13.27;;;;;;;;;;1716941;81;617965;-75
2022/10/13 09:03:31;;;;;;;15.50;14.07;;;;;;;;;;1746288;81;617909;-74
2022/10/13 09:06:03;;;;;;;15.30;14.03;;;;;;;;;;1736811;81;617987;-75
2022/10/13 09:08:33;;;;;;;15.53;14.37;;;;;;;;;;1744387;81;617966;-74
2022/10/13 09:11:03;;;;;;;15.23;14.13;;;;;;;;;;1714060;81;617846;-75
2022/10/13 09:13:32;;;;;;;15.33;14.30;;;;;;;;;;1744314;81;617823;-74
2022/10/13 09:16:01;;;;;;;15.20;14.30;;;;;;;;;;1713891;81;617071;-74
2022/10/13 09:18:32;;;;;;;14.87;13.80;;;;;;;;;;1743968;81;617058;-74
2022/10/13 09:21:34;;;;;;;14.67;13.77;;;;;;;;;;1713905;81;618058;-74
2022/10/13 09:24:06;;;;;;;15.43;14.40;;;;;;;;;;1712532;81;617767;-74
2022/10/13 09:26:38;;;;;;;15.10;14.20;;;;;;;;;;1667630;84;618232;-74
2022/10/13 09:29:09;;;;;;;14.07;13.37;;;;;;;;;;1683235;84;616994;-74
2022/10/13 09:31:38;;;;;;;15.63;14.63;;;;;;;;;;1690594;84;617964;-74
2022/10/13 09:34:13;;;;;;;14.80;14.03;;;;;;;;;;1683283;84;618057;-75
2022/10/13 09:36:55;;;;;;;15.10;14.20;;;;;;;;;;1708793;82;616165;-74
2022/10/13 09:39:24;;;;;;;15.17;14.27;;;;;;;;;;1709974;82;617987;-75
2022/10/13 09:41:55;;;;;;;14.93;14.00;;;;;;;;;;1667229;84;616240;-74
2022/10/13 09:44:28;;;;;;;15.33;14.53;;;;;;;;;;1689085;83;617897;-74
2022/10/13 09:46:58;;;;;;;15.63;14.83;;;;;;;;;;1683409;83;617100;-75
2022/10/13 09:49:36;;;;;;;15.13;14.13;;;;;;;;;;1668445;84;617214;-74
2022/10/13 09:52:06;;;;;;;14.83;14.03;;;;;;;;;;1662057;84;617849;-74
2022/10/13 09:54:38;;;;;;;15.60;14.73;;;;;;;;;;1670156;84;617882;-75
2022/10/13 09:57:07;;;;;;;14.50;13.80;;;;;;;;;;1662352;84;617856;-74
2022/10/13 09:59:39;;;;;;;14.80;14.10;;;;;;;;;;1733715;81;617760;-74
2022/10/13 10:02:14;;;;;;;15.10;14.20;;;;;;;;;;1703523;82;617956;-74
2022/10/13 10:04:44;;;;;;;15.00;14.20;;;;;;;;;;1692899;84;615966;-74
2022/10/13 10:07:14;;;;;;;15.27;14.37;;;;;;;;;;1663000;84;617861;-74
2022/10/13 10:09:44;;;;;;;14.50;13.60;;;;;;;;;;1647290;84;615980;-74
2022/10/13 10:12:15;;;;;;;13.67;12.97;;;;;;;;;;1738961;80;617791;-73
2022/10/13 10:14:47;;;;;;;13.67;13.03;;;;;;;;;;1724130;81;615992;-75
2022/10/13 10:17:18;;;;;;;14.50;13.70;;;;;;;;;;1738457;78;617897;-74
2022/10/13 10:19:50;;;;;;;13.77;12.93;;;;;;;;;;1724567;81;615820;-74
2022/10/13 10:22:21;;;;;;;13.97;13.27;;;;;;;;;;1738289;81;618074;-74
2022/10/13 10:24:51;;;;;;;12.57;11.80;;;;;;;;;;1722918;81;616123;-74
2022/10/13 10:27:21;;;;;;;13.07;12.23;;;;;;;;;;1737485;80;617120;-76
2022/10/13 10:29:54;;;;;;;12.57;11.97;;;;;;;;;;1700469;81;616112;-76
2022/10/13 10:32:28;;;;;;;12.30;11.63;;;;;;;;;;1746318;81;617869;-76
2022/10/13 10:34:59;;;;;;;12.40;11.80;;;;;;;;;;1738882;81;616601;-77
2022/10/13 10:37:40;;;;;;;12.07;11.57;;;;;;;;;;1746282;81;617795;-76
2022/10/13 10:40:12;;;;;;;12.50;11.90;;;;;;;;;;1716306;81;617662;-76
2022/10/13 10:43:06;;;;;;;11.53;10.97;;;;;;;;;;1670299;84;616025;-76
2022/10/13 10:45:39;;;;;;;11.30;10.90;;;;;;;;;;1732062;81;617830;-76
2022/10/13 10:48:11;;;;;;;11.20;10.80;;;;;;;;;;1662784;84;617780;-75
2022/10/13 10:50:41;;;;;;;11.50;11.00;;;;;;;;;;1731491;81;617028;-75
2022/10/13 10:53:13;;;;;;;11.37;10.97;;;;;;;;;;1726827;80;617769;-76
2022/10/13 10:55:44;;;;;;;11.40;10.90;;;;;;;;;;1733489;82;615893;-76
2022/10/13 10:58:17;;;;;;;11.17;10.77;;;;;;;;;;1662388;84;617744;-76
2022/10/13 11:00:47;;;;;;;11.50;11.00;;;;;;;;;;1733665;81;616119;-76
2022/10/13 11:03:21;;;;;;;11.47;10.87;;;;;;;;;;1662465;84;617810;-75
2022/10/13 11:06:02;;;;;;;11.47;11.00;;;;;;;;;;1692823;84;616065;-75
2022/10/13 11:08:33;;;;;;;11.83;11.33;;;;;;;;;;1690684;84;618055;-75
2022/10/13 11:11:19;;;;;;;11.60;11.00;;;;;;;;;;1714546;80;617698;-75
2022/10/13 11:13:52;;;;;;;10.80;10.40;;;;;;;;;;1746895;80;616090;-75
2022/10/13 11:16:27;;;;;;;11.33;10.63;;;;;;;;;;1746278;81;616698;-75
2022/10/13 11:22:27;;;;;;;11.37;10.97;;;;;;;;;;2053734;69;28698;-75
2022/10/13 11:24:59;;;;;;;11.50;11.10;;;;;;;;;;1911499;72;24237;-75
2022/10/13 11:27:30;;;;;;;11.13;10.73;;;;;;;;;;1975859;72;24234;-74
2022/10/13 11:30:01;;;;;;;10.77;10.27;;;;;;;;;;1939538;72;24254;-76
2022/10/13 11:32:54;;;;;;;10.60;10.20;;;;;;;;;;1978467;72;24276;-75
2022/10/13 11:35:27;;;;;;;10.33;10.03;;;;;;;;;;1976473;72;24928;-75
2022/10/13 11:38:09;;;;;;;11.40;10.90;;;;;;;;;;1978248;72;24931;-76
2022/10/13 11:40:39;;;;;;;11.20;10.80;;;;;;;;;;1912297;72;24245;-75
2022/10/13 11:43:13;;;;;;;11.60;11.10;;;;;;;;;;1940455;72;24172;-75
2022/10/13 11:45:44;;;;;;;12.17;11.60;;;;;;;;;;1975496;72;24180;-75
2022/10/13 11:48:19;;;;;;;12.97;12.30;;;;;;;;;;1939739;72;24246;-82
2022/10/13 11:50:50;;;;;;;12.27;11.67;;;;;;;;;;1908239;74;24523;-84
2022/10/13 11:53:21;;;;;;;12.17;11.57;;;;;;;;;;1912002;74;24873;-81
2022/10/13 11:55:51;;;;;;;12.63;11.93;;;;;;;;;;1940959;73;24186;-81
2022/10/13 11:58:21;;;;;;;11.93;11.23;;;;;;;;;;1940861;73;24648;-81
2022/10/13 12:00:54;;;;;;;11.20;10.70;;;;;;;;;;1905906;74;24255;-81
2022/10/13 12:03:25;;;;;;;10.83;10.43;;;;;;;;;;1940665;74;24769;-81
2022/10/13 12:05:55;;;;;;;10.67;10.17;;;;;;;;;;1905699;74;24281;-81
2022/10/13 12:08:25;;;;;;;12.40;11.90;;;;;;;;;;1906353;74;24235;-82
2022/10/13 12:10:56;;;;;;;12.33;11.83;;;;;;;;;;1943388;73;24220;-81
2022/10/13 12:13:26;;;;;;;12.53;12.03;;;;;;;;;;1943607;73;24200;-81
2022/10/13 12:15:59;;;;;;;12.80;12.20;;;;;;;;;;1909296;74;24130;-81
2022/10/13 12:18:32;;;;;;;11.80;11.30;;;;;;;;;;1914678;74;24623;-81
2022/10/13 12:21:01;;;;;;;11.90;11.40;;;;;;;;;;1943219;73;24651;-81
2022/10/13 12:23:31;;;;;;;13.10;12.50;;;;;;;;;;1943365;73;24204;-81
2022/10/13 12:25:59;;;;;;;12.80;12.30;;;;;;;;;;1914584;74;24196;-81
2022/10/13 12:28:32;;;;;;;11.70;11.30;;;;;;;;;;1944000;73;24197;-81
2022/10/13 12:31:03;;;;;;;12.33;11.73;;;;;;;;;;1909489;74;26279;-85
2022/10/13 12:33:34;;;;;;;11.97;11.30;;;;;;;;;;1913576;73;24469;-75
2022/10/13 12:36:14;;;;;;;11.43;11.03;;;;;;;;;;1864446;76;25271;-74
2022/10/13 12:38:44;;;;;;;12.47;11.87;;;;;;;;;;1908632;74;24247;-75
2022/10/13 12:41:14;;;;;;;12.93;12.23;;;;;;;;;;1913240;74;24243;-75
2022/10/13 12:43:43;;;;;;;13.37;12.67;;;;;;;;;;1946748;73;24132;-75
2022/10/13 12:46:11;;;;;;;11.93;11.43;;;;;;;;;;1876047;75;24147;-74
2022/10/13 12:48:43;;;;;;;12.80;12.30;;;;;;;;;;1874425;75;24202;-74
2022/10/13 12:51:14;;;;;;;12.50;11.80;;;;;;;;;;1901643;75;24154;-74
2022/10/13 12:53:44;;;;;;;11.50;11.00;;;;;;;;;;1902042;75;24138;-74
2022/10/13 12:56:21;;;;;;;11.87;11.27;;;;;;;;;;1903087;74;24208;-74
2022/10/13 12:58:52;;;;;;;11.83;11.33;;;;;;;;;;1946758;73;24128;-75
2022/10/13 13:01:24;;;;;;;11.63;11.00;;;;;;;;;;1882665;75;24175;-74
2022/10/13 13:03:55;;;;;;;11.00;10.50;;;;;;;;;;1869228;75;24404;-74
2022/10/13 13:06:26;;;;;;;12.00;11.47;;;;;;;;;;1867193;76;24137;-75
2022/10/13 13:09:28;;;;;;;11.60;11.20;;;;;;;;;;1908283;74;25063;-75
2022/10/13 13:12:14;;;;;;;12.00;11.50;;;;;;;;;;1843322;76;24148;-74
2022/10/13 13:17:39;;;;;;;10.77;10.27;;;;;;;;;;2053494;69;26050;-73
2022/10/13 13:20:21;;;;;;;12.10;11.43;;;;;;;;;;1982850;71;24155;-73
2022/10/13 13:22:50;;;;;;;11.90;11.40;;;;;;;;;;2019932;71;24142;-75
2022/10/13 13:25:19;;;;;;;11.50;11.00;;;;;;;;;;2020048;71;24154;-73
2022/10/13 13:27:48;;;;;;;11.45;11.05;;;;;;;;;;2019813;71;24166;-73
2022/10/13 13:30:18;;;;;;;11.60;11.10;;;;;;;;;;1898074;74;24199;-74
2022/10/13 13:32:46;;;;;;;12.00;11.40;;;;;;;;;;1878594;74;24172;-73
2022/10/13 13:35:15;;;;;;;12.23;11.73;;;;;;;;;;1879424;74;24272;-76
2022/10/13 13:37:46;;;;;;;11.90;11.30;;;;;;;;;;1941381;74;24165;-75
2022/10/13 13:40:17;;;;;;;11.50;11.00;;;;;;;;;;1939693;72;26812;-76
2022/10/13 13:42:46;;;;;;;11.27;10.77;;;;;;;;;;1942960;72;24234;-73
2022/10/13 13:45:15;;;;;;;13.13;12.43;;;;;;;;;;1921647;72;26264;-73
2022/10/13 13:47:44;;;;;;;12.63;12.03;;;;;;;;;;1943012;72;24194;-73
2022/10/13 13:50:15;;;;;;;12.60;12.00;;;;;;;;;;1955353;72;24202;-73
2022/10/13 13:52:46;;;;;;;13.60;13.00;;;;;;;;;;1887438;76;24148;-74
2022/10/13 13:55:15;;;;;;;13.33;12.73;;;;;;;;;;1903073;74;24718;-73
2022/10/13 13:57:44;;;;;;;13.00;12.50;;;;;;;;;;1934633;74;24133;-74
2022/10/13 14:00:14;;;;;;;13.50;12.90;;;;;;;;;;1903613;74;24122;-73
2022/10/13 14:02:43;;;;;;;12.60;12.10;;;;;;;;;;1903652;74;24129;-74
2022/10/13 14:05:12;;;;;;;12.80;12.20;;;;;;;;;;1934629;74;24615;-74
2022/10/13 14:07:41;;;;;;;13.07;12.43;;;;;;;;;;1934607;74;26775;-73
2022/10/13 14:10:10;;;;;;;12.73;12.20;;;;;;;;;;1903028;74;24129;-73
2022/10/13 14:12:39;;;;;;;12.77;12.17;;;;;;;;;;1934652;74;24183;-74
2022/10/13 14:15:09;;;;;;;11.90;11.27;;;;;;;;;;1833236;74;24206;-73
2022/10/13 14:17:37;;;;;;;12.00;11.50;;;;;;;;;;1872685;75;24796;-75
2022/10/13 14:20:06;;;;;;;12.50;11.80;;;;;;;;;;1847332;75;27328;-73
2022/10/13 14:22:37;;;;;;;11.87;11.37;;;;;;;;;;1905743;75;24718;-73
2022/10/13 14:25:07;;;;;;;12.00;11.40;;;;;;;;;;1873127;75;24187;-73
2022/10/13 14:27:36;;;;;;;11.40;10.90;;;;;;;;;;1872147;75;24188;-73
2022/10/13 14:30:05;;;;;;;11.97;11.47;;;;;;;;;;1872121;75;24216;-73
2022/10/13 14:32:34;;;;;;;11.50;10.90;;;;;;;;;;1871445;75;24196;-73